sensor_id;sensor_type;location;lat;lon;timestamp;temperature;humidity
69677;DHT22;56914;51.058;9.326;2022-11-15T00:31:50;17.30;60.30
69677;DHT22;56914;51.058;9.326;2022-11-15T00:33:06;17.20;60.40
69677;DHT22;56914;51.058;9.326;2022-11-15T01:11:11;16.80;61.40
69677;DHT22;56914;51.058;9.326;2022-11-15T03:04:52;14.60;65.60
69677;DHT22;56914;51.058;9.326;2022-11-15T03:06:38;14.60;66.10
69677;DHT22;56914;51.058;9.326;2022-11-15T03:12:43;14.60;66.00
69677;DHT22;56914;51.058;9.326;2022-11-15T03:15:04;14.60;66.10
69677;DHT22;56914;51.058;9.326;2022-11-15T03:17:21;14.60;65.70
69677;DHT22;56914;51.058;9.326;2022-11-15T03:24:32;14.60;65.50
69677;DHT22;56914;51.058;9.326;2022-11-15T03:30:17;14.60;66.20
69677;DHT22;56914;51.058;9.326;2022-11-15T03:32:26;14.60;66.40
69677;DHT22;56914;51.058;9.326;2022-11-15T03:39:08;14.80;67.00
69677;DHT22;56914;51.058;9.326;2022-11-15T03:40:33;14.90;66.60
69677;DHT22;56914;51.058;9.326;2022-11-15T04:46:42;15.10;65.00
69677;DHT22;56914;51.058;9.326;2022-11-15T04:50:12;15.10;65.40
69677;DHT22;56914;51.058;9.326;2022-11-15T04:51:16;15.20;65.50
69677;DHT22;56914;51.058;9.326;2022-11-15T04:54:35;15.20;65.10
69677;DHT22;56914;51.058;9.326;2022-11-15T04:55:38;15.20;64.70
69677;DHT22;56914;51.058;9.326;2022-11-15T05:39:52;15.50;65.50
69677;DHT22;56914;51.058;9.326;2022-11-15T05:41:09;15.50;65.60
69677;DHT22;56914;51.058;9.326;2022-11-15T05:42:28;15.60;65.50
69677;DHT22;56914;51.058;9.326;2022-11-15T05:43:36;15.60;65.60
69677;DHT22;56914;51.058;9.326;2022-11-15T05:44:45;15.60;65.50
69677;DHT22;56914;51.058;9.326;2022-11-15T05:45:50;15.70;65.40
69677;DHT22;56914;51.058;9.326;2022-11-15T05:46:55;15.70;65.30
69677;DHT22;56914;51.058;9.326;2022-11-15T05:48:04;15.70;65.30
69677;DHT22;56914;51.058;9.326;2022-11-15T05:49:12;15.70;65.30
69677;DHT22;56914;51.058;9.326;2022-11-15T05:50:18;15.80;65.20
69677;DHT22;56914;51.058;9.326;2022-11-15T05:51:23;15.80;65.10
69677;DHT22;56914;51.058;9.326;2022-11-15T05:52:33;15.80;64.90
69677;DHT22;56914;51.058;9.326;2022-11-15T05:53:37;15.90;64.80
69677;DHT22;56914;51.058;9.326;2022-11-15T05:54:41;15.90;64.70
69677;DHT22;56914;51.058;9.326;2022-11-15T05:55:49;15.90;64.60
69677;DHT22;56914;51.058;9.326;2022-11-15T05:57:46;16.00;64.70
69677;DHT22;56914;51.058;9.326;2022-11-15T05:59:13;16.00;64.50
69677;DHT22;56914;51.058;9.326;2022-11-15T06:00:17;16.00;64.10
69677;DHT22;56914;51.058;9.326;2022-11-15T06:01:20;16.00;64.30
69677;DHT22;56914;51.058;9.326;2022-11-15T06:02:23;16.10;64.20
69677;DHT22;56914;51.058;9.326;2022-11-15T06:03:25;16.10;64.10
69677;DHT22;56914;51.058;9.326;2022-11-15T06:04:29;16.10;64.00
69677;DHT22;56914;51.058;9.326;2022-11-15T06:05:31;16.10;64.00
69677;DHT22;56914;51.058;9.326;2022-11-15T06:06:34;16.10;63.90
69677;DHT22;56914;51.058;9.326;2022-11-15T06:07:37;16.10;63.80
69677;DHT22;56914;51.058;9.326;2022-11-15T06:08:41;16.10;63.60
69677;DHT22;56914;51.058;9.326;2022-11-15T06:09:43;16.20;63.50
69677;DHT22;56914;51.058;9.326;2022-11-15T06:10:46;16.10;63.50
69677;DHT22;56914;51.058;9.326;2022-11-15T06:11:49;16.10;63.70
69677;DHT22;56914;51.058;9.326;2022-11-15T06:12:56;16.10;63.60
69677;DHT22;56914;51.058;9.326;2022-11-15T06:14:00;16.10;63.70
69677;DHT22;56914;51.058;9.326;2022-11-15T06:15:04;16.20;63.60
69677;DHT22;56914;51.058;9.326;2022-11-15T06:16:07;16.20;63.40
69677;DHT22;56914;51.058;9.326;2022-11-15T06:17:09;16.20;63.40
69677;DHT22;56914;51.058;9.326;2022-11-15T06:18:12;16.20;63.30
69677;DHT22;56914;51.058;9.326;2022-11-15T06:19:14;16.20;63.00
69677;DHT22;56914;51.058;9.326;2022-11-15T06:20:18;16.20;63.20
69677;DHT22;56914;51.058;9.326;2022-11-15T06:21:20;16.10;62.90
69677;DHT22;56914;51.058;9.326;2022-11-15T06:22:23;16.10;63.10
69677;DHT22;56914;51.058;9.326;2022-11-15T06:23:28;16.10;62.90
69677;DHT22;56914;51.058;9.326;2022-11-15T06:24:34;16.10;62.90
69677;DHT22;56914;51.058;9.326;2022-11-15T06:25:37;16.10;62.60
69677;DHT22;56914;51.058;9.326;2022-11-15T06:26:39;16.10;62.40
69677;DHT22;56914;51.058;9.326;2022-11-15T06:27:43;16.10;62.40
69677;DHT22;56914;51.058;9.326;2022-11-15T06:28:45;16.10;62.50
69677;DHT22;56914;51.058;9.326;2022-11-15T06:29:48;16.10;62.30
69677;DHT22;56914;51.058;9.326;2022-11-15T06:30:52;16.10;62.30
69677;DHT22;56914;51.058;9.326;2022-11-15T06:31:54;16.00;62.40
69677;DHT22;56914;51.058;9.326;2022-11-15T06:33:03;16.00;62.30
69677;DHT22;56914;51.058;9.326;2022-11-15T06:34:06;16.00;62.30
69677;DHT22;56914;51.058;9.326;2022-11-15T06:35:10;16.00;62.30
69677;DHT22;56914;51.058;9.326;2022-11-15T06:36:13;15.90;62.40
69677;DHT22;56914;51.058;9.326;2022-11-15T06:37:18;15.90;62.40
69677;DHT22;56914;51.058;9.326;2022-11-15T06:38:21;15.90;62.40
69677;DHT22;56914;51.058;9.326;2022-11-15T06:39:25;15.90;62.40
69677;DHT22;56914;51.058;9.326;2022-11-15T06:40:28;15.80;62.50
69677;DHT22;56914;51.058;9.326;2022-11-15T06:41:33;15.80;62.60
69677;DHT22;56914;51.058;9.326;2022-11-15T06:42:36;15.80;62.60
69677;DHT22;56914;51.058;9.326;2022-11-15T06:43:39;15.80;62.60
69677;DHT22;56914;51.058;9.326;2022-11-15T06:44:43;15.80;62.60
69677;DHT22;56914;51.058;9.326;2022-11-15T06:45:46;15.80;62.60
69677;DHT22;56914;51.058;9.326;2022-11-15T06:46:48;15.80;62.50
69677;DHT22;56914;51.058;9.326;2022-11-15T06:47:51;15.80;62.50
69677;DHT22;56914;51.058;9.326;2022-11-15T06:48:54;15.80;62.50
69677;DHT22;56914;51.058;9.326;2022-11-15T06:49:57;15.80;62.30
69677;DHT22;56914;51.058;9.326;2022-11-15T06:51:01;15.80;62.10
69677;DHT22;56914;51.058;9.326;2022-11-15T06:52:04;15.80;62.30
69677;DHT22;56914;51.058;9.326;2022-11-15T06:53:07;15.80;62.30
69677;DHT22;56914;51.058;9.326;2022-11-15T06:54:09;15.80;62.20
69677;DHT22;56914;51.058;9.326;2022-11-15T06:55:14;15.80;62.30
69677;DHT22;56914;51.058;9.326;2022-11-15T06:56:17;15.80;62.30
69677;DHT22;56914;51.058;9.326;2022-11-15T06:57:22;15.90;62.70
69677;DHT22;56914;51.058;9.326;2022-11-15T06:58:24;15.90;62.20
69677;DHT22;56914;51.058;9.326;2022-11-15T06:59:27;15.90;62.10
69677;DHT22;56914;51.058;9.326;2022-11-15T07:00:29;15.90;62.00
69677;DHT22;56914;51.058;9.326;2022-11-15T07:01:32;15.80;62.00
69677;DHT22;56914;51.058;9.326;2022-11-15T07:02:36;15.80;62.50
69677;DHT22;56914;51.058;9.326;2022-11-15T07:03:41;15.80;62.00
69677;DHT22;56914;51.058;9.326;2022-11-15T07:04:44;15.80;62.00
69677;DHT22;56914;51.058;9.326;2022-11-15T07:05:51;15.70;61.90
69677;DHT22;56914;51.058;9.326;2022-11-15T07:06:55;15.70;61.90
69677;DHT22;56914;51.058;9.326;2022-11-15T07:07:58;15.70;61.90
69677;DHT22;56914;51.058;9.326;2022-11-15T07:09:02;15.70;61.90
69677;DHT22;56914;51.058;9.326;2022-11-15T07:10:06;15.60;61.90
69677;DHT22;56914;51.058;9.326;2022-11-15T07:11:11;15.60;61.90
69677;DHT22;56914;51.058;9.326;2022-11-15T07:12:13;15.60;61.90
69677;DHT22;56914;51.058;9.326;2022-11-15T07:13:16;15.60;61.90
69677;DHT22;56914;51.058;9.326;2022-11-15T07:14:19;15.50;61.90
69677;DHT22;56914;51.058;9.326;2022-11-15T07:15:24;15.50;61.90
69677;DHT22;56914;51.058;9.326;2022-11-15T07:16:27;15.50;61.90
69677;DHT22;56914;51.058;9.326;2022-11-15T07:17:29;15.50;61.90
69677;DHT22;56914;51.058;9.326;2022-11-15T07:18:34;15.40;61.80
69677;DHT22;56914;51.058;9.326;2022-11-15T07:19:43;15.40;61.70
69677;DHT22;56914;51.058;9.326;2022-11-15T07:20:45;15.40;61.80
69677;DHT22;56914;51.058;9.326;2022-11-15T07:21:52;15.40;61.90
69677;DHT22;56914;51.058;9.326;2022-11-15T07:22:59;15.40;62.00
69677;DHT22;56914;51.058;9.326;2022-11-15T07:24:12;15.40;62.10
69677;DHT22;56914;51.058;9.326;2022-11-15T07:25:15;15.40;62.10
69677;DHT22;56914;51.058;9.326;2022-11-15T07:26:19;15.40;62.10
69677;DHT22;56914;51.058;9.326;2022-11-15T07:27:22;15.40;62.70
69677;DHT22;56914;51.058;9.326;2022-11-15T07:28:25;15.40;62.20
69677;DHT22;56914;51.058;9.326;2022-11-15T07:29:28;15.40;62.20
69677;DHT22;56914;51.058;9.326;2022-11-15T07:30:31;15.40;62.30
69677;DHT22;56914;51.058;9.326;2022-11-15T07:31:33;15.40;62.30
69677;DHT22;56914;51.058;9.326;2022-11-15T07:32:36;15.50;62.40
69677;DHT22;56914;51.058;9.326;2022-11-15T07:33:38;15.50;62.40
69677;DHT22;56914;51.058;9.326;2022-11-15T07:34:41;15.50;62.40
69677;DHT22;56914;51.058;9.326;2022-11-15T07:35:44;15.50;62.50
69677;DHT22;56914;51.058;9.326;2022-11-15T07:36:50;15.60;62.60
69677;DHT22;56914;51.058;9.326;2022-11-15T07:37:54;15.60;62.70
69677;DHT22;56914;51.058;9.326;2022-11-15T07:38:56;15.60;62.70
69677;DHT22;56914;51.058;9.326;2022-11-15T07:39:59;15.60;62.90
69677;DHT22;56914;51.058;9.326;2022-11-15T07:41:05;15.60;62.90
69677;DHT22;56914;51.058;9.326;2022-11-15T07:42:09;15.70;63.10
69677;DHT22;56914;51.058;9.326;2022-11-15T07:43:30;15.70;63.10
69677;DHT22;56914;51.058;9.326;2022-11-15T07:44:35;15.70;63.10
69677;DHT22;56914;51.058;9.326;2022-11-15T07:45:41;15.70;63.20
69677;DHT22;56914;51.058;9.326;2022-11-15T07:46:44;15.70;63.20
69677;DHT22;56914;51.058;9.326;2022-11-15T07:47:48;15.80;63.20
69677;DHT22;56914;51.058;9.326;2022-11-15T07:48:50;15.80;63.20
69677;DHT22;56914;51.058;9.326;2022-11-15T07:49:53;15.80;63.30
69677;DHT22;56914;51.058;9.326;2022-11-15T07:50:55;15.80;63.30
69677;DHT22;56914;51.058;9.326;2022-11-15T07:51:59;15.90;63.30
69677;DHT22;56914;51.058;9.326;2022-11-15T07:53:01;15.90;63.30
69677;DHT22;56914;51.058;9.326;2022-11-15T07:54:04;16.00;63.30
69677;DHT22;56914;51.058;9.326;2022-11-15T07:55:08;16.10;63.30
69677;DHT22;56914;51.058;9.326;2022-11-15T07:56:10;16.10;63.00
69677;DHT22;56914;51.058;9.326;2022-11-15T07:57:15;16.10;62.80
69677;DHT22;56914;51.058;9.326;2022-11-15T07:58:17;16.20;62.90
69677;DHT22;56914;51.058;9.326;2022-11-15T07:59:20;16.20;62.90
69677;DHT22;56914;51.058;9.326;2022-11-15T08:00:22;16.30;62.90
69677;DHT22;56914;51.058;9.326;2022-11-15T08:01:25;16.30;62.80
69677;DHT22;56914;51.058;9.326;2022-11-15T08:02:29;16.40;62.70
69677;DHT22;56914;51.058;9.326;2022-11-15T08:03:31;16.40;62.50
69677;DHT22;56914;51.058;9.326;2022-11-15T08:04:35;16.50;62.70
69677;DHT22;56914;51.058;9.326;2022-11-15T08:05:39;16.50;62.70
69677;DHT22;56914;51.058;9.326;2022-11-15T08:06:42;16.50;62.70
69677;DHT22;56914;51.058;9.326;2022-11-15T08:07:44;16.50;62.60
69677;DHT22;56914;51.058;9.326;2022-11-15T08:08:53;16.60;62.60
69677;DHT22;56914;51.058;9.326;2022-11-15T08:09:56;16.60;62.30
69677;DHT22;56914;51.058;9.326;2022-11-15T08:10:59;16.60;62.10
69677;DHT22;56914;51.058;9.326;2022-11-15T08:12:03;16.60;61.70
69677;DHT22;56914;51.058;9.326;2022-11-15T08:13:10;16.60;61.80
69677;DHT22;56914;51.058;9.326;2022-11-15T08:14:13;16.60;61.70
69677;DHT22;56914;51.058;9.326;2022-11-15T08:15:16;16.50;61.70
69677;DHT22;56914;51.058;9.326;2022-11-15T08:16:19;16.50;61.70
69677;DHT22;56914;51.058;9.326;2022-11-15T08:17:21;16.50;61.70
69677;DHT22;56914;51.058;9.326;2022-11-15T08:18:24;16.60;61.80
69677;DHT22;56914;51.058;9.326;2022-11-15T08:19:26;16.50;61.70
69677;DHT22;56914;51.058;9.326;2022-11-15T08:20:30;16.60;61.70
69677;DHT22;56914;51.058;9.326;2022-11-15T08:21:34;16.60;61.50
69677;DHT22;56914;51.058;9.326;2022-11-15T08:22:36;16.60;61.60
69677;DHT22;56914;51.058;9.326;2022-11-15T08:23:40;16.60;62.20
69677;DHT22;56914;51.058;9.326;2022-11-15T08:24:42;16.60;61.60
69677;DHT22;56914;51.058;9.326;2022-11-15T08:25:45;16.60;61.60
69677;DHT22;56914;51.058;9.326;2022-11-15T08:26:47;16.70;61.70
69677;DHT22;56914;51.058;9.326;2022-11-15T08:27:51;16.70;61.70
69677;DHT22;56914;51.058;9.326;2022-11-15T08:28:56;16.70;61.70
69677;DHT22;56914;51.058;9.326;2022-11-15T08:29:58;16.70;61.70
69677;DHT22;56914;51.058;9.326;2022-11-15T08:31:03;16.70;61.60
69677;DHT22;56914;51.058;9.326;2022-11-15T08:32:05;16.70;61.70
69677;DHT22;56914;51.058;9.326;2022-11-15T08:33:11;16.70;61.60
69677;DHT22;56914;51.058;9.326;2022-11-15T08:34:14;16.70;61.70
69677;DHT22;56914;51.058;9.326;2022-11-15T08:35:18;16.70;61.70
69677;DHT22;56914;51.058;9.326;2022-11-15T08:36:25;16.80;61.80
69677;DHT22;56914;51.058;9.326;2022-11-15T08:37:37;16.80;61.70
69677;DHT22;56914;51.058;9.326;2022-11-15T08:38:41;16.90;61.60
69677;DHT22;56914;51.058;9.326;2022-11-15T08:39:44;16.90;61.60
69677;DHT22;56914;51.058;9.326;2022-11-15T08:40:47;16.90;61.40
69677;DHT22;56914;51.058;9.326;2022-11-15T08:41:49;16.90;61.50
69677;DHT22;56914;51.058;9.326;2022-11-15T08:42:52;17.00;61.40
69677;DHT22;56914;51.058;9.326;2022-11-15T08:43:57;17.00;61.20
69677;DHT22;56914;51.058;9.326;2022-11-15T08:45:01;17.00;61.10
69677;DHT22;56914;51.058;9.326;2022-11-15T08:46:04;17.10;61.10
69677;DHT22;56914;51.058;9.326;2022-11-15T08:47:08;17.10;61.00
69677;DHT22;56914;51.058;9.326;2022-11-15T08:48:12;17.10;60.90
69677;DHT22;56914;51.058;9.326;2022-11-15T08:49:15;17.10;60.70
69677;DHT22;56914;51.058;9.326;2022-11-15T08:50:18;17.20;60.70
69677;DHT22;56914;51.058;9.326;2022-11-15T08:51:23;17.20;60.60
69677;DHT22;56914;51.058;9.326;2022-11-15T08:52:25;17.20;60.60
69677;DHT22;56914;51.058;9.326;2022-11-15T08:53:28;17.20;60.40
69677;DHT22;56914;51.058;9.326;2022-11-15T08:54:31;17.20;60.40
69677;DHT22;56914;51.058;9.326;2022-11-15T08:55:36;17.30;60.40
69677;DHT22;56914;51.058;9.326;2022-11-15T08:56:40;17.30;60.40
69677;DHT22;56914;51.058;9.326;2022-11-15T08:57:43;17.40;60.20
69677;DHT22;56914;51.058;9.326;2022-11-15T08:58:46;17.40;60.10
69677;DHT22;56914;51.058;9.326;2022-11-15T08:59:51;17.40;60.00
69677;DHT22;56914;51.058;9.326;2022-11-15T09:00:54;17.50;59.90
69677;DHT22;56914;51.058;9.326;2022-11-15T09:01:56;17.50;59.90
69677;DHT22;56914;51.058;9.326;2022-11-15T09:03:01;17.50;59.90
69677;DHT22;56914;51.058;9.326;2022-11-15T09:04:06;17.50;60.00
69677;DHT22;56914;51.058;9.326;2022-11-15T09:05:09;17.50;59.90
69677;DHT22;56914;51.058;9.326;2022-11-15T09:06:12;17.50;59.90
69677;DHT22;56914;51.058;9.326;2022-11-15T09:07:16;17.50;59.90
69677;DHT22;56914;51.058;9.326;2022-11-15T09:08:19;17.50;60.00
69677;DHT22;56914;51.058;9.326;2022-11-15T09:09:42;17.60;59.90
69677;DHT22;56914;51.058;9.326;2022-11-15T09:10:45;17.60;60.00
69677;DHT22;56914;51.058;9.326;2022-11-15T09:11:49;17.60;59.80
69677;DHT22;56914;51.058;9.326;2022-11-15T09:12:52;17.60;59.80
69677;DHT22;56914;51.058;9.326;2022-11-15T09:13:55;17.60;59.70
69677;DHT22;56914;51.058;9.326;2022-11-15T09:14:59;17.70;59.80
69677;DHT22;56914;51.058;9.326;2022-11-15T09:16:03;17.70;59.80
69677;DHT22;56914;51.058;9.326;2022-11-15T09:17:07;17.70;59.80
69677;DHT22;56914;51.058;9.326;2022-11-15T09:18:11;17.70;59.80
69677;DHT22;56914;51.058;9.326;2022-11-15T09:19:13;17.70;59.80
69677;DHT22;56914;51.058;9.326;2022-11-15T09:20:17;17.80;59.70
69677;DHT22;56914;51.058;9.326;2022-11-15T09:21:20;17.80;59.90
69677;DHT22;56914;51.058;9.326;2022-11-15T09:22:23;17.80;60.00
69677;DHT22;56914;51.058;9.326;2022-11-15T09:23:26;17.80;60.00
69677;DHT22;56914;51.058;9.326;2022-11-15T09:24:29;17.80;60.00
69677;DHT22;56914;51.058;9.326;2022-11-15T09:25:33;17.80;60.00
69677;DHT22;56914;51.058;9.326;2022-11-15T09:26:35;17.80;60.00
69677;DHT22;56914;51.058;9.326;2022-11-15T09:27:38;17.80;59.90
69677;DHT22;56914;51.058;9.326;2022-11-15T09:28:40;17.80;59.50
69677;DHT22;56914;51.058;9.326;2022-11-15T09:29:44;17.80;60.50
69677;DHT22;56914;51.058;9.326;2022-11-15T09:30:48;17.80;59.90
69677;DHT22;56914;51.058;9.326;2022-11-15T09:31:51;17.90;59.30
69677;DHT22;56914;51.058;9.326;2022-11-15T09:32:54;17.90;59.40
69677;DHT22;56914;51.058;9.326;2022-11-15T09:33:57;17.90;59.10
69677;DHT22;56914;51.058;9.326;2022-11-15T09:35:00;17.90;59.10
69677;DHT22;56914;51.058;9.326;2022-11-15T09:36:04;18.00;59.10
69677;DHT22;56914;51.058;9.326;2022-11-15T09:37:08;18.00;59.10
69677;DHT22;56914;51.058;9.326;2022-11-15T09:38:10;18.00;59.20
69677;DHT22;56914;51.058;9.326;2022-11-15T09:39:15;18.00;59.20
69677;DHT22;56914;51.058;9.326;2022-11-15T09:40:20;18.10;59.30
69677;DHT22;56914;51.058;9.326;2022-11-15T09:41:58;18.10;58.90
69677;DHT22;56914;51.058;9.326;2022-11-15T09:43:21;18.20;58.80
69677;DHT22;56914;51.058;9.326;2022-11-15T09:44:42;18.20;58.50
69677;DHT22;56914;51.058;9.326;2022-11-15T09:45:57;18.20;58.60
69677;DHT22;56914;51.058;9.326;2022-11-15T09:47:22;18.20;58.30
69677;DHT22;56914;51.058;9.326;2022-11-15T09:48:51;18.10;58.20
69677;DHT22;56914;51.058;9.326;2022-11-15T09:49:59;18.10;58.60
69677;DHT22;56914;51.058;9.326;2022-11-15T09:51:08;18.20;58.70
69677;DHT22;56914;51.058;9.326;2022-11-15T09:52:15;18.20;58.60
69677;DHT22;56914;51.058;9.326;2022-11-15T09:53:26;18.30;58.50
69677;DHT22;56914;51.058;9.326;2022-11-15T09:54:51;18.30;58.20
69677;DHT22;56914;51.058;9.326;2022-11-15T09:56:00;18.30;58.50
69677;DHT22;56914;51.058;9.326;2022-11-15T09:57:12;18.30;58.30
69677;DHT22;56914;51.058;9.326;2022-11-15T09:58:26;18.30;58.30
69677;DHT22;56914;51.058;9.326;2022-11-15T09:59:53;18.40;58.30
69677;DHT22;56914;51.058;9.326;2022-11-15T10:01:22;18.40;58.50
69677;DHT22;56914;51.058;9.326;2022-11-15T10:02:50;18.40;58.10
69677;DHT22;56914;51.058;9.326;2022-11-15T10:03:57;18.40;57.80
69677;DHT22;56914;51.058;9.326;2022-11-15T10:05:02;18.40;57.70
69677;DHT22;56914;51.058;9.326;2022-11-15T10:06:23;18.50;58.10
69677;DHT22;56914;51.058;9.326;2022-11-15T10:07:36;18.50;58.00
69677;DHT22;56914;51.058;9.326;2022-11-15T10:08:57;18.50;57.80
69677;DHT22;56914;51.058;9.326;2022-11-15T10:10:11;18.50;57.30
69677;DHT22;56914;51.058;9.326;2022-11-15T10:11:22;18.40;57.40
69677;DHT22;56914;51.058;9.326;2022-11-15T10:12:47;18.40;57.30
69677;DHT22;56914;51.058;9.326;2022-11-15T10:13:53;18.40;57.50
69677;DHT22;56914;51.058;9.326;2022-11-15T10:15:02;18.40;57.90
69677;DHT22;56914;51.058;9.326;2022-11-15T10:16:25;18.40;57.50
69677;DHT22;56914;51.058;9.326;2022-11-15T10:17:53;18.50;57.80
69677;DHT22;56914;51.058;9.326;2022-11-15T10:19:06;18.50;58.10
69677;DHT22;56914;51.058;9.326;2022-11-15T10:20:23;18.50;58.20
69677;DHT22;56914;51.058;9.326;2022-11-15T10:21:45;18.60;58.20
69677;DHT22;56914;51.058;9.326;2022-11-15T10:22:54;18.60;58.30
69677;DHT22;56914;51.058;9.326;2022-11-15T10:23:59;18.60;58.20
69677;DHT22;56914;51.058;9.326;2022-11-15T10:25:16;18.70;57.90
69677;DHT22;56914;51.058;9.326;2022-11-15T10:26:21;18.70;57.90
69677;DHT22;56914;51.058;9.326;2022-11-15T10:27:26;18.70;58.00
69677;DHT22;56914;51.058;9.326;2022-11-15T10:28:30;18.80;58.00
69677;DHT22;56914;51.058;9.326;2022-11-15T10:29:33;18.80;57.70
69677;DHT22;56914;51.058;9.326;2022-11-15T10:30:38;18.90;57.90
69677;DHT22;56914;51.058;9.326;2022-11-15T10:31:43;18.90;57.60
69677;DHT22;56914;51.058;9.326;2022-11-15T10:32:48;18.90;57.60
69677;DHT22;56914;51.058;9.326;2022-11-15T10:33:59;18.90;57.70
69677;DHT22;56914;51.058;9.326;2022-11-15T10:35:24;18.90;57.60
69677;DHT22;56914;51.058;9.326;2022-11-15T10:36:28;19.00;57.90
69677;DHT22;56914;51.058;9.326;2022-11-15T10:37:32;19.00;57.70
69677;DHT22;56914;51.058;9.326;2022-11-15T10:38:52;19.10;57.50
69677;DHT22;56914;51.058;9.326;2022-11-15T10:40:04;19.10;57.50
69677;DHT22;56914;51.058;9.326;2022-11-15T10:41:08;19.20;57.60
69677;DHT22;56914;51.058;9.326;2022-11-15T10:42:24;19.20;57.20
69677;DHT22;56914;51.058;9.326;2022-11-15T10:43:28;19.20;57.10
69677;DHT22;56914;51.058;9.326;2022-11-15T10:44:31;19.30;57.00
69677;DHT22;56914;51.058;9.326;2022-11-15T10:45:35;19.30;57.00
69677;DHT22;56914;51.058;9.326;2022-11-15T10:46:40;19.30;57.10
69677;DHT22;56914;51.058;9.326;2022-11-15T10:47:50;19.30;56.80
69677;DHT22;56914;51.058;9.326;2022-11-15T10:48:53;19.40;56.90
69677;DHT22;56914;51.058;9.326;2022-11-15T10:49:59;19.40;56.70
69677;DHT22;56914;51.058;9.326;2022-11-15T10:51:20;19.40;56.80
69677;DHT22;56914;51.058;9.326;2022-11-15T10:52:24;19.40;56.90
69677;DHT22;56914;51.058;9.326;2022-11-15T10:53:33;19.50;56.90
69677;DHT22;56914;51.058;9.326;2022-11-15T10:54:47;19.50;56.80
69677;DHT22;56914;51.058;9.326;2022-11-15T10:55:53;19.50;56.70
69677;DHT22;56914;51.058;9.326;2022-11-15T10:56:59;19.60;56.70
69677;DHT22;56914;51.058;9.326;2022-11-15T10:58:05;19.60;56.50
69677;DHT22;56914;51.058;9.326;2022-11-15T10:59:17;19.60;56.40
69677;DHT22;56914;51.058;9.326;2022-11-15T11:00:30;19.60;56.60
69677;DHT22;56914;51.058;9.326;2022-11-15T11:01:46;19.70;56.30
69677;DHT22;56914;51.058;9.326;2022-11-15T11:02:59;19.70;56.10
69677;DHT22;56914;51.058;9.326;2022-11-15T11:04:04;19.70;56.20
69677;DHT22;56914;51.058;9.326;2022-11-15T11:05:28;19.70;56.20
69677;DHT22;56914;51.058;9.326;2022-11-15T11:06:47;19.70;56.30
69677;DHT22;56914;51.058;9.326;2022-11-15T11:07:56;19.80;56.30
69677;DHT22;56914;51.058;9.326;2022-11-15T11:09:00;19.80;56.30
69677;DHT22;56914;51.058;9.326;2022-11-15T11:10:17;19.80;56.40
69677;DHT22;56914;51.058;9.326;2022-11-15T11:11:46;19.80;55.90
69677;DHT22;56914;51.058;9.326;2022-11-15T11:12:49;19.80;56.10
69677;DHT22;56914;51.058;9.326;2022-11-15T11:13:52;19.80;56.10
69677;DHT22;56914;51.058;9.326;2022-11-15T11:14:55;19.90;56.20
69677;DHT22;56914;51.058;9.326;2022-11-15T11:16:15;19.90;56.30
69677;DHT22;56914;51.058;9.326;2022-11-15T11:17:29;20.00;56.60
69677;DHT22;56914;51.058;9.326;2022-11-15T11:18:44;20.00;56.40
69677;DHT22;56914;51.058;9.326;2022-11-15T11:20:00;20.10;56.50
69677;DHT22;56914;51.058;9.326;2022-11-15T11:21:13;20.10;55.70
69677;DHT22;56914;51.058;9.326;2022-11-15T11:22:22;20.10;56.10
69677;DHT22;56914;51.058;9.326;2022-11-15T11:23:42;20.20;56.00
69677;DHT22;56914;51.058;9.326;2022-11-15T11:24:56;20.20;55.90
69677;DHT22;56914;51.058;9.326;2022-11-15T11:26:16;20.20;55.50
69677;DHT22;56914;51.058;9.326;2022-11-15T11:27:33;20.20;55.80
69677;DHT22;56914;51.058;9.326;2022-11-15T11:28:45;20.20;55.60
69677;DHT22;56914;51.058;9.326;2022-11-15T11:30:04;20.20;55.60
69677;DHT22;56914;51.058;9.326;2022-11-15T11:31:20;20.20;56.10
69677;DHT22;56914;51.058;9.326;2022-11-15T11:34:15;20.20;56.10
69677;DHT22;56914;51.058;9.326;2022-11-15T11:35:25;20.20;56.10
69677;DHT22;56914;51.058;9.326;2022-11-15T11:36:40;20.20;55.60
69677;DHT22;56914;51.058;9.326;2022-11-15T11:37:49;20.20;55.50
69677;DHT22;56914;51.058;9.326;2022-11-15T11:39:00;20.10;55.70
69677;DHT22;56914;51.058;9.326;2022-11-15T11:40:20;20.10;55.50
69677;DHT22;56914;51.058;9.326;2022-11-15T11:41:44;20.00;55.40
69677;DHT22;56914;51.058;9.326;2022-11-15T11:42:55;20.00;55.70
69677;DHT22;56914;51.058;9.326;2022-11-15T11:44:20;20.00;56.20
69677;DHT22;56914;51.058;9.326;2022-11-15T11:47:14;20.00;56.10
69677;DHT22;56914;51.058;9.326;2022-11-15T11:48:28;20.00;56.70
69677;DHT22;56914;51.058;9.326;2022-11-15T11:49:43;20.00;56.30
69677;DHT22;56914;51.058;9.326;2022-11-15T11:50:48;20.00;56.30
69677;DHT22;56914;51.058;9.326;2022-11-15T11:51:56;20.00;56.10
69677;DHT22;56914;51.058;9.326;2022-11-15T11:53:11;20.00;55.90
69677;DHT22;56914;51.058;9.326;2022-11-15T11:54:22;20.00;56.10
69677;DHT22;56914;51.058;9.326;2022-11-15T11:55:32;20.00;55.80
69677;DHT22;56914;51.058;9.326;2022-11-15T11:56:40;20.00;56.20
69677;DHT22;56914;51.058;9.326;2022-11-15T11:57:50;20.00;55.90
69677;DHT22;56914;51.058;9.326;2022-11-15T11:59:02;20.00;55.60
69677;DHT22;56914;51.058;9.326;2022-11-15T12:00:18;20.00;55.70
69677;DHT22;56914;51.058;9.326;2022-11-15T12:01:24;20.10;55.80
69677;DHT22;56914;51.058;9.326;2022-11-15T12:02:31;20.10;55.40
69677;DHT22;56914;51.058;9.326;2022-11-15T12:03:43;20.10;55.50
69677;DHT22;56914;51.058;9.326;2022-11-15T12:04:52;20.10;55.40
69677;DHT22;56914;51.058;9.326;2022-11-15T12:06:04;20.20;55.50
69677;DHT22;56914;51.058;9.326;2022-11-15T12:07:15;20.10;55.40
69677;DHT22;56914;51.058;9.326;2022-11-15T12:08:28;20.20;55.20
69677;DHT22;56914;51.058;9.326;2022-11-15T12:09:39;20.20;54.90
69677;DHT22;56914;51.058;9.326;2022-11-15T12:10:57;20.20;55.20
69677;DHT22;56914;51.058;9.326;2022-11-15T12:12:08;20.20;55.10
69677;DHT22;56914;51.058;9.326;2022-11-15T12:13:16;20.20;55.10
69677;DHT22;56914;51.058;9.326;2022-11-15T12:14:27;20.10;55.30
69677;DHT22;56914;51.058;9.326;2022-11-15T12:15:39;20.10;55.10
69677;DHT22;56914;51.058;9.326;2022-11-15T12:16:44;20.10;54.80
69677;DHT22;56914;51.058;9.326;2022-11-15T12:17:48;20.10;54.80
69677;DHT22;56914;51.058;9.326;2022-11-15T12:18:54;20.10;55.00
69677;DHT22;56914;51.058;9.326;2022-11-15T12:20:03;20.10;54.70
69677;DHT22;56914;51.058;9.326;2022-11-15T12:21:16;20.10;55.10
69677;DHT22;56914;51.058;9.326;2022-11-15T12:22:23;20.20;55.30
69677;DHT22;56914;51.058;9.326;2022-11-15T12:23:30;20.20;55.00
69677;DHT22;56914;51.058;9.326;2022-11-15T12:24:40;20.20;54.80
69677;DHT22;56914;51.058;9.326;2022-11-15T12:25:50;20.20;54.60
69677;DHT22;56914;51.058;9.326;2022-11-15T12:27:00;20.30;54.60
69677;DHT22;56914;51.058;9.326;2022-11-15T12:28:13;20.30;54.00